Terminal Aerodrome Forecast
Issued by NWS

Home | Current Version | Previous Version | Text Only | Print | Product List | Glossary On
Versions: 1 2 3 4 5 6 7 8 9 10 11 12 13 14 15 16 17 18 19 20 21 22 23 24 25
000
FTUS46 KMFR 291251 AAA
TAFRBG
TAF AMD
KRBG 291251Z 2913/3012 VRB03KT P6SM -SHRA SCT025 BKN030 OVC040
     FM291500 VRB02KT 6SM -SHRA BR SCT012 BKN020 OVC035
     FM292000 01004KT P6SM VCSH SCT020 BKN050
     FM300000 02005KT P6SM FEW035 SCT050
     FM300800 VRB03KT 3SM BR BKN003=

USA.gov is the U.S. government's official web portal to all federal, state and local government web resources and services.